sensor_id;sensor_type;location;lat;lon;timestamp;temperature;humidity
33255;DHT22;19623;52.482;9.762;2023-02-28T00:02:22;-0.90;99.90
33255;DHT22;19623;52.482;9.762;2023-02-28T00:04:47;-0.90;99.90
33255;DHT22;19623;52.482;9.762;2023-02-28T00:07:18;-0.90;99.90
33255;DHT22;19623;52.482;9.762;2023-02-28T00:09:44;-0.90;99.90
33255;DHT22;19623;52.482;9.762;2023-02-28T00:12:10;-0.90;99.90
33255;DHT22;19623;52.482;9.762;2023-02-28T00:14:36;-1.00;99.90
33255;DHT22;19623;52.482;9.762;2023-02-28T00:17:02;-1.00;99.90
33255;DHT22;19623;52.482;9.762;2023-02-28T00:19:27;-1.00;99.90
33255;DHT22;19623;52.482;9.762;2023-02-28T00:21:53;-1.00;99.90
33255;DHT22;19623;52.482;9.762;2023-02-28T00:24:19;-1.10;99.90
33255;DHT22;19623;52.482;9.762;2023-02-28T00:26:44;-1.10;99.90
33255;DHT22;19623;52.482;9.762;2023-02-28T00:29:10;-1.10;99.90
33255;DHT22;19623;52.482;9.762;2023-02-28T00:31:36;-1.10;99.90
33255;DHT22;19623;52.482;9.762;2023-02-28T00:34:01;-1.10;99.90
33255;DHT22;19623;52.482;9.762;2023-02-28T00:36:27;-1.20;99.90
33255;DHT22;19623;52.482;9.762;2023-02-28T00:38:52;-1.20;99.90
33255;DHT22;19623;52.482;9.762;2023-02-28T00:41:18;-1.30;99.90
33255;DHT22;19623;52.482;9.762;2023-02-28T00:43:44;-1.40;99.90
33255;DHT22;19623;52.482;9.762;2023-02-28T00:46:09;-1.50;99.90
33255;DHT22;19623;52.482;9.762;2023-02-28T00:48:35;-1.50;99.90
33255;DHT22;19623;52.482;9.762;2023-02-28T00:51:01;-1.50;99.90
33255;DHT22;19623;52.482;9.762;2023-02-28T00:53:28;-1.50;99.90
33255;DHT22;19623;52.482;9.762;2023-02-28T00:55:53;-1.50;99.90
33255;DHT22;19623;52.482;9.762;2023-02-28T00:58:19;-1.60;99.90
33255;DHT22;19623;52.482;9.762;2023-02-28T01:00:45;-1.60;99.90
33255;DHT22;19623;52.482;9.762;2023-02-28T01:03:15;-1.60;99.90
33255;DHT22;19623;52.482;9.762;2023-02-28T01:05:41;-1.60;99.90
33255;DHT22;19623;52.482;9.762;2023-02-28T01:08:07;-1.60;99.90
33255;DHT22;19623;52.482;9.762;2023-02-28T01:10:32;-1.60;99.90
33255;DHT22;19623;52.482;9.762;2023-02-28T01:12:59;-1.70;99.90
33255;DHT22;19623;52.482;9.762;2023-02-28T01:15:24;-1.60;99.90
33255;DHT22;19623;52.482;9.762;2023-02-28T01:17:50;-1.60;99.90
33255;DHT22;19623;52.482;9.762;2023-02-28T01:20:16;-1.60;99.90
33255;DHT22;19623;52.482;9.762;2023-02-28T01:22:41;-1.70;99.90
33255;DHT22;19623;52.482;9.762;2023-02-28T01:25:07;-1.70;99.90
33255;DHT22;19623;52.482;9.762;2023-02-28T01:27:33;-1.80;99.90
33255;DHT22;19623;52.482;9.762;2023-02-28T01:29:59;-1.80;99.90
33255;DHT22;19623;52.482;9.762;2023-02-28T01:32:24;-1.80;99.90
33255;DHT22;19623;52.482;9.762;2023-02-28T01:34:50;-1.80;99.90
33255;DHT22;19623;52.482;9.762;2023-02-28T01:37:16;-1.90;99.90
33255;DHT22;19623;52.482;9.762;2023-02-28T01:39:41;-1.90;99.90
33255;DHT22;19623;52.482;9.762;2023-02-28T01:42:09;-1.90;99.90
33255;DHT22;19623;52.482;9.762;2023-02-28T01:45:26;-1.90;99.90
33255;DHT22;19623;52.482;9.762;2023-02-28T01:47:55;-1.90;99.90
33255;DHT22;19623;52.482;9.762;2023-02-28T01:50:26;-1.90;99.90
33255;DHT22;19623;52.482;9.762;2023-02-28T01:52:55;-1.90;99.90
33255;DHT22;19623;52.482;9.762;2023-02-28T01:55:22;-2.00;99.90
33255;DHT22;19623;52.482;9.762;2023-02-28T01:57:52;-2.00;99.90
33255;DHT22;19623;52.482;9.762;2023-02-28T02:00:21;-2.00;99.90
33255;DHT22;19623;52.482;9.762;2023-02-28T02:02:50;-2.00;99.90
33255;DHT22;19623;52.482;9.762;2023-02-28T02:05:19;-2.00;99.90
33255;DHT22;19623;52.482;9.762;2023-02-28T02:07:47;-2.00;99.90
33255;DHT22;19623;52.482;9.762;2023-02-28T02:10:24;-2.00;99.90
33255;DHT22;19623;52.482;9.762;2023-02-28T02:15:35;-2.00;99.90
33255;DHT22;19623;52.482;9.762;2023-02-28T02:18:14;-2.10;99.90
33255;DHT22;19623;52.482;9.762;2023-02-28T02:35:31;-2.40;99.90
33255;DHT22;19623;52.482;9.762;2023-02-28T02:40:57;-2.40;99.90
33255;DHT22;19623;52.482;9.762;2023-02-28T02:43:44;-2.50;99.90
33255;DHT22;19623;52.482;9.762;2023-02-28T02:46:29;-2.50;99.90
33255;DHT22;19623;52.482;9.762;2023-02-28T02:49:00;-2.50;99.90
33255;DHT22;19623;52.482;9.762;2023-02-28T02:51:27;-2.60;99.90
33255;DHT22;19623;52.482;9.762;2023-02-28T02:54:02;-2.60;99.90
33255;DHT22;19623;52.482;9.762;2023-02-28T02:56:31;-2.50;99.90
33255;DHT22;19623;52.482;9.762;2023-02-28T02:59:02;-2.50;99.90
33255;DHT22;19623;52.482;9.762;2023-02-28T03:01:30;-2.50;99.90
33255;DHT22;19623;52.482;9.762;2023-02-28T03:03:59;-2.60;99.90
33255;DHT22;19623;52.482;9.762;2023-02-28T03:06:27;-2.50;99.90
33255;DHT22;19623;52.482;9.762;2023-02-28T03:08:53;-2.50;99.90
33255;DHT22;19623;52.482;9.762;2023-02-28T03:11:18;-2.50;99.90
33255;DHT22;19623;52.482;9.762;2023-02-28T03:19:31;-2.70;99.90
33255;DHT22;19623;52.482;9.762;2023-02-28T03:25:21;-2.70;99.90
33255;DHT22;19623;52.482;9.762;2023-02-28T03:31:07;-2.80;99.90
33255;DHT22;19623;52.482;9.762;2023-02-28T03:33:40;-2.80;99.90
33255;DHT22;19623;52.482;9.762;2023-02-28T03:36:12;-2.80;99.90
33255;DHT22;19623;52.482;9.762;2023-02-28T03:38:52;-2.90;99.90
33255;DHT22;19623;52.482;9.762;2023-02-28T03:41:29;-2.80;99.90
33255;DHT22;19623;52.482;9.762;2023-02-28T03:44:05;-2.80;99.90
33255;DHT22;19623;52.482;9.762;2023-02-28T03:46:34;-2.90;99.90
33255;DHT22;19623;52.482;9.762;2023-02-28T03:49:27;-2.90;99.90
33255;DHT22;19623;52.482;9.762;2023-02-28T03:51:54;-2.90;99.90
33255;DHT22;19623;52.482;9.762;2023-02-28T03:54:48;-2.90;99.90
33255;DHT22;19623;52.482;9.762;2023-02-28T03:57:28;-3.00;99.90
33255;DHT22;19623;52.482;9.762;2023-02-28T04:00:06;-3.00;99.90
33255;DHT22;19623;52.482;9.762;2023-02-28T04:02:33;-3.00;99.90
33255;DHT22;19623;52.482;9.762;2023-02-28T04:05:00;-3.00;99.90
33255;DHT22;19623;52.482;9.762;2023-02-28T04:07:29;-3.10;99.90
33255;DHT22;19623;52.482;9.762;2023-02-28T04:09:55;-3.10;99.90
33255;DHT22;19623;52.482;9.762;2023-02-28T04:12:21;-3.10;99.90
33255;DHT22;19623;52.482;9.762;2023-02-28T04:14:48;-3.10;99.90
33255;DHT22;19623;52.482;9.762;2023-02-28T04:17:14;-3.10;99.90
33255;DHT22;19623;52.482;9.762;2023-02-28T04:19:40;-3.10;99.90
33255;DHT22;19623;52.482;9.762;2023-02-28T04:22:06;-3.10;99.90
33255;DHT22;19623;52.482;9.762;2023-02-28T04:24:31;-3.10;99.90
33255;DHT22;19623;52.482;9.762;2023-02-28T04:26:57;-3.20;99.90
33255;DHT22;19623;52.482;9.762;2023-02-28T04:29:26;-3.20;99.90
33255;DHT22;19623;52.482;9.762;2023-02-28T04:31:53;-3.20;99.90
33255;DHT22;19623;52.482;9.762;2023-02-28T04:34:19;-3.20;99.90
33255;DHT22;19623;52.482;9.762;2023-02-28T04:36:47;-3.20;99.90
33255;DHT22;19623;52.482;9.762;2023-02-28T04:39:15;-3.20;99.90
33255;DHT22;19623;52.482;9.762;2023-02-28T04:41:40;-3.20;99.90
33255;DHT22;19623;52.482;9.762;2023-02-28T04:44:06;-3.20;99.90
33255;DHT22;19623;52.482;9.762;2023-02-28T04:46:32;-3.20;99.90
33255;DHT22;19623;52.482;9.762;2023-02-28T04:48:57;-3.20;99.90
33255;DHT22;19623;52.482;9.762;2023-02-28T04:51:24;-3.20;99.90
33255;DHT22;19623;52.482;9.762;2023-02-28T04:53:49;-3.30;99.90
33255;DHT22;19623;52.482;9.762;2023-02-28T04:56:16;-3.30;99.90
33255;DHT22;19623;52.482;9.762;2023-02-28T04:58:43;-3.30;99.90
33255;DHT22;19623;52.482;9.762;2023-02-28T05:01:21;-3.30;99.90
33255;DHT22;19623;52.482;9.762;2023-02-28T05:03:48;-3.30;99.90
33255;DHT22;19623;52.482;9.762;2023-02-28T05:06:14;-3.30;99.90
33255;DHT22;19623;52.482;9.762;2023-02-28T05:08:40;-3.30;99.90
33255;DHT22;19623;52.482;9.762;2023-02-28T05:11:13;-3.30;99.90
33255;DHT22;19623;52.482;9.762;2023-02-28T05:13:39;-3.40;99.90
33255;DHT22;19623;52.482;9.762;2023-02-28T05:16:05;-3.40;99.90
33255;DHT22;19623;52.482;9.762;2023-02-28T05:18:30;-3.40;99.90
33255;DHT22;19623;52.482;9.762;2023-02-28T05:20:56;-3.40;99.90
33255;DHT22;19623;52.482;9.762;2023-02-28T05:23:22;-3.40;99.90
33255;DHT22;19623;52.482;9.762;2023-02-28T05:25:48;-3.40;99.90
33255;DHT22;19623;52.482;9.762;2023-02-28T05:28:13;-3.40;99.90
33255;DHT22;19623;52.482;9.762;2023-02-28T05:30:39;-3.40;99.90
33255;DHT22;19623;52.482;9.762;2023-02-28T05:33:05;-3.40;99.90
33255;DHT22;19623;52.482;9.762;2023-02-28T05:35:31;-3.40;99.90
33255;DHT22;19623;52.482;9.762;2023-02-28T05:37:57;-3.50;99.90
33255;DHT22;19623;52.482;9.762;2023-02-28T05:40:22;-3.50;99.90
33255;DHT22;19623;52.482;9.762;2023-02-28T05:42:50;-3.50;99.90
33255;DHT22;19623;52.482;9.762;2023-02-28T05:45:16;-3.50;99.90
33255;DHT22;19623;52.482;9.762;2023-02-28T05:47:42;-3.60;99.90
33255;DHT22;19623;52.482;9.762;2023-02-28T05:50:08;-3.60;99.90
33255;DHT22;19623;52.482;9.762;2023-02-28T05:52:36;-3.60;99.90
33255;DHT22;19623;52.482;9.762;2023-02-28T05:55:01;-3.60;99.90
33255;DHT22;19623;52.482;9.762;2023-02-28T05:57:27;-3.70;99.90
33255;DHT22;19623;52.482;9.762;2023-02-28T05:59:53;-3.60;99.90
33255;DHT22;19623;52.482;9.762;2023-02-28T06:02:18;-3.60;99.90
33255;DHT22;19623;52.482;9.762;2023-02-28T06:04:44;-3.60;99.90
33255;DHT22;19623;52.482;9.762;2023-02-28T06:07:10;-3.60;99.90
33255;DHT22;19623;52.482;9.762;2023-02-28T06:09:37;-3.60;99.90
33255;DHT22;19623;52.482;9.762;2023-02-28T06:12:04;-3.60;99.90
33255;DHT22;19623;52.482;9.762;2023-02-28T06:14:32;-3.70;99.90
33255;DHT22;19623;52.482;9.762;2023-02-28T06:16:58;-3.70;99.90
33255;DHT22;19623;52.482;9.762;2023-02-28T06:19:24;-3.70;99.90
33255;DHT22;19623;52.482;9.762;2023-02-28T06:21:53;-3.50;99.90
33255;DHT22;19623;52.482;9.762;2023-02-28T06:24:21;-3.30;99.90
33255;DHT22;19623;52.482;9.762;2023-02-28T06:26:46;-3.20;99.90
33255;DHT22;19623;52.482;9.762;2023-02-28T06:29:12;-3.20;99.90
33255;DHT22;19623;52.482;9.762;2023-02-28T06:31:44;-3.30;99.90
33255;DHT22;19623;52.482;9.762;2023-02-28T06:34:10;-3.40;99.90
33255;DHT22;19623;52.482;9.762;2023-02-28T06:36:38;-3.50;99.90
33255;DHT22;19623;52.482;9.762;2023-02-28T06:39:04;-3.60;99.90
33255;DHT22;19623;52.482;9.762;2023-02-28T06:41:29;-3.60;99.90
33255;DHT22;19623;52.482;9.762;2023-02-28T06:43:55;-3.50;99.90
33255;DHT22;19623;52.482;9.762;2023-02-28T06:46:21;-3.60;99.90
33255;DHT22;19623;52.482;9.762;2023-02-28T06:48:47;-3.60;99.90
33255;DHT22;19623;52.482;9.762;2023-02-28T06:51:16;-3.60;99.90
33255;DHT22;19623;52.482;9.762;2023-02-28T06:53:42;-3.50;99.90
33255;DHT22;19623;52.482;9.762;2023-02-28T06:56:10;-3.50;99.90
33255;DHT22;19623;52.482;9.762;2023-02-28T06:58:37;-3.40;99.90
33255;DHT22;19623;52.482;9.762;2023-02-28T07:01:03;-3.40;99.90
33255;DHT22;19623;52.482;9.762;2023-02-28T07:03:30;-3.30;99.90
33255;DHT22;19623;52.482;9.762;2023-02-28T07:05:55;-3.30;99.90
33255;DHT22;19623;52.482;9.762;2023-02-28T07:08:25;-3.30;99.90
33255;DHT22;19623;52.482;9.762;2023-02-28T07:10:54;-3.40;99.90
33255;DHT22;19623;52.482;9.762;2023-02-28T07:13:21;-3.40;99.90
33255;DHT22;19623;52.482;9.762;2023-02-28T07:16:01;-3.30;99.90
33255;DHT22;19623;52.482;9.762;2023-02-28T07:18:28;-3.10;99.90
33255;DHT22;19623;52.482;9.762;2023-02-28T07:20:54;-3.10;99.90
33255;DHT22;19623;52.482;9.762;2023-02-28T07:23:20;-3.10;99.90
33255;DHT22;19623;52.482;9.762;2023-02-28T07:25:46;-3.00;99.90
33255;DHT22;19623;52.482;9.762;2023-02-28T07:28:13;-3.00;99.90
33255;DHT22;19623;52.482;9.762;2023-02-28T07:30:39;-3.00;99.90
33255;DHT22;19623;52.482;9.762;2023-02-28T07:33:05;-2.90;99.90
33255;DHT22;19623;52.482;9.762;2023-02-28T07:35:31;-2.80;99.90
33255;DHT22;19623;52.482;9.762;2023-02-28T07:38:00;-2.70;99.90
33255;DHT22;19623;52.482;9.762;2023-02-28T07:40:26;-2.60;99.90
33255;DHT22;19623;52.482;9.762;2023-02-28T07:42:52;-2.50;99.90
33255;DHT22;19623;52.482;9.762;2023-02-28T07:45:18;-2.40;99.90
33255;DHT22;19623;52.482;9.762;2023-02-28T07:47:45;-2.40;99.90
33255;DHT22;19623;52.482;9.762;2023-02-28T07:50:13;-2.30;99.90
33255;DHT22;19623;52.482;9.762;2023-02-28T07:52:40;-2.10;99.90
33255;DHT22;19623;52.482;9.762;2023-02-28T07:55:07;-1.90;99.90
33255;DHT22;19623;52.482;9.762;2023-02-28T07:57:33;-1.80;99.90
33255;DHT22;19623;52.482;9.762;2023-02-28T07:59:59;-1.60;99.90
33255;DHT22;19623;52.482;9.762;2023-02-28T08:02:25;-1.40;99.90
33255;DHT22;19623;52.482;9.762;2023-02-28T08:04:51;-1.30;99.90
33255;DHT22;19623;52.482;9.762;2023-02-28T08:07:17;-1.20;99.90
33255;DHT22;19623;52.482;9.762;2023-02-28T08:09:44;-1.10;99.90
33255;DHT22;19623;52.482;9.762;2023-02-28T08:12:11;-1.10;99.90
33255;DHT22;19623;52.482;9.762;2023-02-28T08:14:40;-0.80;99.90
33255;DHT22;19623;52.482;9.762;2023-02-28T08:17:06;-0.80;99.90
33255;DHT22;19623;52.482;9.762;2023-02-28T08:19:32;-0.70;99.90
33255;DHT22;19623;52.482;9.762;2023-02-28T08:21:58;-0.60;99.90
33255;DHT22;19623;52.482;9.762;2023-02-28T08:24:23;-0.60;99.90
33255;DHT22;19623;52.482;9.762;2023-02-28T08:26:49;-0.50;99.90
33255;DHT22;19623;52.482;9.762;2023-02-28T08:29:15;-0.30;99.90
33255;DHT22;19623;52.482;9.762;2023-02-28T08:31:42;-0.20;99.90
33255;DHT22;19623;52.482;9.762;2023-02-28T08:34:13;-0.20;99.90
33255;DHT22;19623;52.482;9.762;2023-02-28T08:36:41;-0.10;99.90
33255;DHT22;19623;52.482;9.762;2023-02-28T08:39:10;-0.10;99.90
33255;DHT22;19623;52.482;9.762;2023-02-28T08:41:41;0.00;99.90
33255;DHT22;19623;52.482;9.762;2023-02-28T08:44:07;0.10;99.90
33255;DHT22;19623;52.482;9.762;2023-02-28T08:46:33;0.20;99.90
33255;DHT22;19623;52.482;9.762;2023-02-28T08:48:59;0.40;99.90
33255;DHT22;19623;52.482;9.762;2023-02-28T08:51:28;0.50;99.90
33255;DHT22;19623;52.482;9.762;2023-02-28T08:53:55;0.60;99.90
33255;DHT22;19623;52.482;9.762;2023-02-28T08:56:21;0.70;99.90
33255;DHT22;19623;52.482;9.762;2023-02-28T08:58:48;0.80;99.90
33255;DHT22;19623;52.482;9.762;2023-02-28T09:01:17;0.90;99.90
33255;DHT22;19623;52.482;9.762;2023-02-28T09:03:44;0.90;99.90
33255;DHT22;19623;52.482;9.762;2023-02-28T09:06:11;1.00;99.90
33255;DHT22;19623;52.482;9.762;2023-02-28T09:08:37;1.10;99.90
33255;DHT22;19623;52.482;9.762;2023-02-28T09:11:04;1.20;99.90
33255;DHT22;19623;52.482;9.762;2023-02-28T09:13:30;1.30;99.90
33255;DHT22;19623;52.482;9.762;2023-02-28T09:15:58;1.40;99.90
33255;DHT22;19623;52.482;9.762;2023-02-28T09:18:24;1.50;99.90
33255;DHT22;19623;52.482;9.762;2023-02-28T09:20:50;1.60;99.90
33255;DHT22;19623;52.482;9.762;2023-02-28T09:23:19;1.70;99.90
33255;DHT22;19623;52.482;9.762;2023-02-28T09:25:53;1.80;99.90
33255;DHT22;19623;52.482;9.762;2023-02-28T09:28:19;2.10;99.90
33255;DHT22;19623;52.482;9.762;2023-02-28T09:30:50;2.20;99.90
33255;DHT22;19623;52.482;9.762;2023-02-28T09:33:16;2.20;99.90
33255;DHT22;19623;52.482;9.762;2023-02-28T09:35:42;2.40;99.90
33255;DHT22;19623;52.482;9.762;2023-02-28T09:38:09;2.60;99.90
33255;DHT22;19623;52.482;9.762;2023-02-28T09:43:12;2.90;99.90
33255;DHT22;19623;52.482;9.762;2023-02-28T09:45:41;3.00;99.90
33255;DHT22;19623;52.482;9.762;2023-02-28T09:48:21;3.20;99.90
33255;DHT22;19623;52.482;9.762;2023-02-28T09:51:00;3.20;99.90
33255;DHT22;19623;52.482;9.762;2023-02-28T09:53:30;3.30;99.90
33255;DHT22;19623;52.482;9.762;2023-02-28T09:56:13;3.40;99.90
33255;DHT22;19623;52.482;9.762;2023-02-28T09:58:56;3.60;99.90
33255;DHT22;19623;52.482;9.762;2023-02-28T10:01:26;3.40;99.90
33255;DHT22;19623;52.482;9.762;2023-02-28T10:04:08;3.40;99.90
33255;DHT22;19623;52.482;9.762;2023-02-28T10:06:51;3.40;99.90
33255;DHT22;19623;52.482;9.762;2023-02-28T10:09:27;3.40;99.90
33255;DHT22;19623;52.482;9.762;2023-02-28T10:12:00;3.40;99.90
33255;DHT22;19623;52.482;9.762;2023-02-28T10:14:32;3.50;99.90
33255;DHT22;19623;52.482;9.762;2023-02-28T10:19:38;3.70;99.90
33255;DHT22;19623;52.482;9.762;2023-02-28T10:22:36;3.80;99.90
33255;DHT22;19623;52.482;9.762;2023-02-28T10:25:24;4.10;99.90
33255;DHT22;19623;52.482;9.762;2023-02-28T10:28:00;4.20;99.90
33255;DHT22;19623;52.482;9.762;2023-02-28T10:30:26;4.30;99.90
33255;DHT22;19623;52.482;9.762;2023-02-28T10:32:53;4.20;99.90
33255;DHT22;19623;52.482;9.762;2023-02-28T10:35:22;4.30;99.90
33255;DHT22;19623;52.482;9.762;2023-02-28T10:37:51;4.40;99.90
33255;DHT22;19623;52.482;9.762;2023-02-28T10:43:03;4.40;99.90
33255;DHT22;19623;52.482;9.762;2023-02-28T10:45:31;4.50;99.90
33255;DHT22;19623;52.482;9.762;2023-02-28T10:53:28;4.50;99.90
33255;DHT22;19623;52.482;9.762;2023-02-28T10:56:04;4.60;99.90
33255;DHT22;19623;52.482;9.762;2023-02-28T10:58:42;4.70;99.90
33255;DHT22;19623;52.482;9.762;2023-02-28T11:01:16;4.80;99.90
33255;DHT22;19623;52.482;9.762;2023-02-28T11:03:42;4.80;99.90
33255;DHT22;19623;52.482;9.762;2023-02-28T11:06:15;4.70;99.90
33255;DHT22;19623;52.482;9.762;2023-02-28T11:09:04;4.70;99.90
33255;DHT22;19623;52.482;9.762;2023-02-28T11:11:45;4.70;99.90
33255;DHT22;19623;52.482;9.762;2023-02-28T11:14:24;4.90;99.90
33255;DHT22;19623;52.482;9.762;2023-02-28T11:16:54;4.90;99.90
33255;DHT22;19623;52.482;9.762;2023-02-28T11:19:35;4.90;99.90
33255;DHT22;19623;52.482;9.762;2023-02-28T11:22:05;4.70;99.90
33255;DHT22;19623;52.482;9.762;2023-02-28T11:24:35;4.70;99.90
33255;DHT22;19623;52.482;9.762;2023-02-28T11:27:02;4.70;99.90
33255;DHT22;19623;52.482;9.762;2023-02-28T11:29:30;4.80;99.90
33255;DHT22;19623;52.482;9.762;2023-02-28T11:32:12;5.00;99.90
33255;DHT22;19623;52.482;9.762;2023-02-28T11:34:41;5.00;99.90
33255;DHT22;19623;52.482;9.762;2023-02-28T11:37:16;5.00;99.90
33255;DHT22;19623;52.482;9.762;2023-02-28T11:39:44;5.10;99.90
33255;DHT22;19623;52.482;9.762;2023-02-28T11:42:32;5.10;99.90
33255;DHT22;19623;52.482;9.762;2023-02-28T11:45:21;5.00;99.90
33255;DHT22;19623;52.482;9.762;2023-02-28T11:48:40;5.10;99.90
33255;DHT22;19623;52.482;9.762;2023-02-28T11:53:30;5.00;99.90
33255;DHT22;19623;52.482;9.762;2023-02-28T11:56:17;5.00;99.90
33255;DHT22;19623;52.482;9.762;2023-02-28T11:58:50;5.00;99.90
33255;DHT22;19623;52.482;9.762;2023-02-28T12:06:53;5.30;99.90
33255;DHT22;19623;52.482;9.762;2023-02-28T12:20:54;5.90;99.90
33255;DHT22;19623;52.482;9.762;2023-02-28T12:23:52;5.90;99.90
33255;DHT22;19623;52.482;9.762;2023-02-28T12:29:19;5.90;99.90
33255;DHT22;19623;52.482;9.762;2023-02-28T12:34:31;6.00;99.90
33255;DHT22;19623;52.482;9.762;2023-02-28T12:37:04;6.10;99.90
33255;DHT22;19623;52.482;9.762;2023-02-28T12:39:40;6.20;99.90
33255;DHT22;19623;52.482;9.762;2023-02-28T12:42:30;6.20;99.90
33255;DHT22;19623;52.482;9.762;2023-02-28T12:45:24;6.00;99.90
33255;DHT22;19623;52.482;9.762;2023-02-28T12:48:02;6.00;99.90
33255;DHT22;19623;52.482;9.762;2023-02-28T12:50:29;6.00;99.90
33255;DHT22;19623;52.482;9.762;2023-02-28T12:55:50;6.00;99.90
33255;DHT22;19623;52.482;9.762;2023-02-28T13:01:48;6.00;99.90
33255;DHT22;19623;52.482;9.762;2023-02-28T13:04:37;6.00;99.90
33255;DHT22;19623;52.482;9.762;2023-02-28T13:07:41;6.00;99.90
33255;DHT22;19623;52.482;9.762;2023-02-28T13:10:10;6.00;99.90
33255;DHT22;19623;52.482;9.762;2023-02-28T13:12:35;6.00;99.90
33255;DHT22;19623;52.482;9.762;2023-02-28T13:15:08;5.90;99.90
33255;DHT22;19623;52.482;9.762;2023-02-28T13:17:42;5.70;99.90
33255;DHT22;19623;52.482;9.762;2023-02-28T13:20:28;5.60;99.90
33255;DHT22;19623;52.482;9.762;2023-02-28T13:22:55;5.60;99.90
33255;DHT22;19623;52.482;9.762;2023-02-28T13:27:53;6.00;99.90
33255;DHT22;19623;52.482;9.762;2023-02-28T13:38:34;6.20;99.90
33255;DHT22;19623;52.482;9.762;2023-02-28T13:46:29;6.00;99.90
33255;DHT22;19623;52.482;9.762;2023-02-28T13:48:55;5.90;99.90
33255;DHT22;19623;52.482;9.762;2023-02-28T13:51:42;6.10;99.90
33255;DHT22;19623;52.482;9.762;2023-02-28T14:05:33;5.90;99.90
33255;DHT22;19623;52.482;9.762;2023-02-28T14:08:08;5.90;99.90
33255;DHT22;19623;52.482;9.762;2023-02-28T14:10:44;6.00;99.90
33255;DHT22;19623;52.482;9.762;2023-02-28T14:13:40;5.90;99.90
33255;DHT22;19623;52.482;9.762;2023-02-28T14:16:11;6.00;99.90
33255;DHT22;19623;52.482;9.762;2023-02-28T14:18:42;6.00;99.90
33255;DHT22;19623;52.482;9.762;2023-02-28T14:21:28;6.00;99.90
33255;DHT22;19623;52.482;9.762;2023-02-28T14:38:36;5.60;99.90
33255;DHT22;19623;52.482;9.762;2023-02-28T14:41:05;5.70;99.90
33255;DHT22;19623;52.482;9.762;2023-02-28T14:43:32;5.70;99.90
33255;DHT22;19623;52.482;9.762;2023-02-28T14:46:00;5.70;99.90
33255;DHT22;19623;52.482;9.762;2023-02-28T14:48:27;5.60;99.90
33255;DHT22;19623;52.482;9.762;2023-02-28T14:50:58;5.60;99.90
33255;DHT22;19623;52.482;9.762;2023-02-28T14:53:27;5.60;99.90
33255;DHT22;19623;52.482;9.762;2023-02-28T14:55:54;5.70;99.90
33255;DHT22;19623;52.482;9.762;2023-02-28T14:58:31;5.70;99.90
33255;DHT22;19623;52.482;9.762;2023-02-28T15:01:00;5.70;99.90
33255;DHT22;19623;52.482;9.762;2023-02-28T15:03:36;5.70;99.90
33255;DHT22;19623;52.482;9.762;2023-02-28T15:06:05;5.60;99.90
33255;DHT22;19623;52.482;9.762;2023-02-28T15:08:32;5.70;99.90
33255;DHT22;19623;52.482;9.762;2023-02-28T15:11:07;5.70;99.90
33255;DHT22;19623;52.482;9.762;2023-02-28T15:13:42;5.70;99.90
33255;DHT22;19623;52.482;9.762;2023-02-28T15:16:16;5.80;99.90
33255;DHT22;19623;52.482;9.762;2023-02-28T15:18:59;5.70;99.90
33255;DHT22;19623;52.482;9.762;2023-02-28T15:21:28;5.70;99.90
33255;DHT22;19623;52.482;9.762;2023-02-28T15:26:39;5.70;99.90
33255;DHT22;19623;52.482;9.762;2023-02-28T15:29:11;5.70;99.90
33255;DHT22;19623;52.482;9.762;2023-02-28T15:31:44;5.70;99.90
33255;DHT22;19623;52.482;9.762;2023-02-28T15:34:42;5.70;99.90
33255;DHT22;19623;52.482;9.762;2023-02-28T15:40:17;5.60;99.90
33255;DHT22;19623;52.482;9.762;2023-02-28T15:42:43;5.50;99.90
33255;DHT22;19623;52.482;9.762;2023-02-28T15:45:46;5.40;99.90
33255;DHT22;19623;52.482;9.762;2023-02-28T15:48:28;5.50;99.90
33255;DHT22;19623;52.482;9.762;2023-02-28T15:53:52;5.20;99.90
33255;DHT22;19623;52.482;9.762;2023-02-28T15:56:29;5.10;99.90
33255;DHT22;19623;52.482;9.762;2023-02-28T15:59:50;5.20;99.90
33255;DHT22;19623;52.482;9.762;2023-02-28T16:02:17;5.20;99.90
33255;DHT22;19623;52.482;9.762;2023-02-28T16:07:34;5.20;99.90
33255;DHT22;19623;52.482;9.762;2023-02-28T16:10:01;5.10;99.90
33255;DHT22;19623;52.482;9.762;2023-02-28T16:12:29;5.10;99.90
33255;DHT22;19623;52.482;9.762;2023-02-28T16:14:57;4.80;99.90
33255;DHT22;19623;52.482;9.762;2023-02-28T16:17:26;4.80;99.90
33255;DHT22;19623;52.482;9.762;2023-02-28T16:19:53;4.70;99.90
33255;DHT22;19623;52.482;9.762;2023-02-28T16:22:18;4.50;99.90
33255;DHT22;19623;52.482;9.762;2023-02-28T16:24:44;4.40;99.90
33255;DHT22;19623;52.482;9.762;2023-02-28T16:27:36;4.40;99.90
33255;DHT22;19623;52.482;9.762;2023-02-28T16:30:06;4.20;99.90
33255;DHT22;19623;52.482;9.762;2023-02-28T16:32:35;4.20;99.90
33255;DHT22;19623;52.482;9.762;2023-02-28T16:35:02;4.10;99.90
33255;DHT22;19623;52.482;9.762;2023-02-28T16:37:28;4.10;99.90
33255;DHT22;19623;52.482;9.762;2023-02-28T16:39:54;3.90;99.90
33255;DHT22;19623;52.482;9.762;2023-02-28T16:42:25;3.80;99.90
33255;DHT22;19623;52.482;9.762;2023-02-28T16:44:53;3.80;99.90
33255;DHT22;19623;52.482;9.762;2023-02-28T16:47:19;3.80;99.90
33255;DHT22;19623;52.482;9.762;2023-02-28T16:49:45;3.70;99.90
33255;DHT22;19623;52.482;9.762;2023-02-28T16:52:13;3.60;99.90
33255;DHT22;19623;52.482;9.762;2023-02-28T16:54:40;3.50;99.90
33255;DHT22;19623;52.482;9.762;2023-02-28T16:57:08;3.40;99.90
33255;DHT22;19623;52.482;9.762;2023-02-28T16:59:40;3.30;99.90
33255;DHT22;19623;52.482;9.762;2023-02-28T17:02:12;3.20;99.90
33255;DHT22;19623;52.482;9.762;2023-02-28T17:04:39;3.10;99.90
33255;DHT22;19623;52.482;9.762;2023-02-28T17:07:06;2.90;99.90
33255;DHT22;19623;52.482;9.762;2023-02-28T17:09:33;2.80;99.90
33255;DHT22;19623;52.482;9.762;2023-02-28T17:11:59;2.70;99.90
33255;DHT22;19623;52.482;9.762;2023-02-28T17:14:24;2.60;99.90
33255;DHT22;19623;52.482;9.762;2023-02-28T17:16:50;2.50;99.90
33255;DHT22;19623;52.482;9.762;2023-02-28T17:19:16;2.50;99.90
33255;DHT22;19623;52.482;9.762;2023-02-28T17:21:42;2.40;99.90
33255;DHT22;19623;52.482;9.762;2023-02-28T17:24:09;2.40;99.90
33255;DHT22;19623;52.482;9.762;2023-02-28T17:26:38;2.30;99.90
33255;DHT22;19623;52.482;9.762;2023-02-28T17:29:09;2.30;99.90
33255;DHT22;19623;52.482;9.762;2023-02-28T17:31:36;2.20;99.90
33255;DHT22;19623;52.482;9.762;2023-02-28T17:34:04;2.10;99.90
33255;DHT22;19623;52.482;9.762;2023-02-28T17:36:29;2.00;99.90
33255;DHT22;19623;52.482;9.762;2023-02-28T17:38:55;1.80;99.90
33255;DHT22;19623;52.482;9.762;2023-02-28T17:41:22;1.60;99.90
33255;DHT22;19623;52.482;9.762;2023-02-28T17:43:47;1.60;99.90
33255;DHT22;19623;52.482;9.762;2023-02-28T17:46:21;1.60;99.90
33255;DHT22;19623;52.482;9.762;2023-02-28T17:48:48;1.60;99.90
33255;DHT22;19623;52.482;9.762;2023-02-28T17:51:14;1.50;99.90
33255;DHT22;19623;52.482;9.762;2023-02-28T17:53:40;1.40;99.90
33255;DHT22;19623;52.482;9.762;2023-02-28T17:56:11;1.40;99.90
33255;DHT22;19623;52.482;9.762;2023-02-28T17:58:37;1.40;99.90
33255;DHT22;19623;52.482;9.762;2023-02-28T18:01:03;1.40;99.90
33255;DHT22;19623;52.482;9.762;2023-02-28T18:03:28;1.40;99.90
33255;DHT22;19623;52.482;9.762;2023-02-28T18:05:56;1.30;99.90
33255;DHT22;19623;52.482;9.762;2023-02-28T18:08:22;1.30;99.90